»·PEaware :: UAL1928 KSLC-KLAX

UAL1928 :: KSLC-KLAX

FLIGHT INFORMATION

Flight Status: Arrived
Operator:
United Airlines
More flights by this operator :: More flights under this callsign
Pilot: Chris C. (10181)
Aircraft: BOEING 737-200
(B732)
More flights by this aircraft type
Origin: KSLC Salt Lake City Intl
United States
Destination: KLAX Los Angeles Intl
United States
More flights between these airports :: More routes between these airports
Route: +TNP SEAVU2
File this flight plan on PilotEdge
Remarks:
Altitude:
(Current/Filed)
28,000ft
Speed:
(Current/Filed)
480kts
Departed: 03-Nov-19 05:52 PM
Arrived: 03-Nov-19 07:22 PM
Distance/Time
Traveled:
512nm/1:30
Distance/Time
To Go:
Arrived

Flight Plot

Page will automatically refresh every two minutes.

Flight plan parsing failed; only flown route is shown


Map Options




Map Legend


Flown Route
Filed Route
Departure Airport
Arrival Airport
Navaid (VOR, NDB)
Fix

Horizontal Profiles

Position Reports

Time Latitude Longitude Heading Altitude Ground
Speed
03-Nov-19 16:48 40.787356 -111.977796 0 4227ft 0kts
03-Nov-19 16:49 40.787356 -111.977796 269 4227ft 0kts
03-Nov-19 16:50 40.787356 -111.977796 269 4227ft 0kts
03-Nov-19 16:51 40.787356 -111.977796 269 4227ft 0kts
03-Nov-19 16:52 40.787356 -111.977796 269 4227ft 0kts
03-Nov-19 16:53 40.787356 -111.977796 269 4227ft 0kts
03-Nov-19 16:54 40.787356 -111.977796 269 4227ft 0kts
03-Nov-19 16:55 40.787356 -111.977796 269 4227ft 0kts
03-Nov-19 16:56 40.787356 -111.977796 269 4227ft 0kts
03-Nov-19 16:57 40.787356 -111.977796 269 4227ft 0kts
03-Nov-19 16:58 40.787356 -111.977796 269 4227ft 0kts
03-Nov-19 16:59 40.787356 -111.977796 269 4227ft 0kts
03-Nov-19 17:00 40.787356 -111.977796 269 4227ft 0kts
03-Nov-19 17:01 40.787356 -111.977796 269 4227ft 0kts
03-Nov-19 17:02 40.787356 -111.977796 269 4227ft 0kts
03-Nov-19 17:03 40.787356 -111.977796 269 4227ft 0kts
03-Nov-19 17:04 40.787356 -111.977796 269 4227ft 0kts
03-Nov-19 17:05 40.787356 -111.977796 269 4227ft 0kts
03-Nov-19 17:06 40.787356 -111.977796 269 4227ft 0kts
03-Nov-19 17:07 40.787356 -111.977796 269 4227ft 0kts
03-Nov-19 17:08 40.787356 -111.977796 269 4227ft 0kts
03-Nov-19 17:09 40.787356 -111.977796 269 4227ft 0kts
03-Nov-19 17:10 40.787356 -111.977796 269 4227ft 0kts
03-Nov-19 17:11 40.787356 -111.977796 269 4227ft 0kts
03-Nov-19 17:12 40.787356 -111.977796 269 4227ft 0kts
03-Nov-19 17:13 40.787356 -111.977796 269 4227ft 0kts
03-Nov-19 17:14 40.787356 -111.977796 269 4227ft 0kts
03-Nov-19 17:15 40.787356 -111.977796 269 4227ft 0kts
03-Nov-19 17:16 40.787356 -111.977796 269 4227ft 0kts
03-Nov-19 17:17 40.787356 -111.977796 269 4227ft 0kts
03-Nov-19 17:18 40.787356 -111.977796 269 4227ft 0kts
03-Nov-19 17:19 40.787356 -111.977796 269 4227ft 0kts
03-Nov-19 17:20 40.787356 -111.977795 269 4227ft 0kts
03-Nov-19 17:21 40.787314 -111.977280 292 4227ft 2kts
03-Nov-19 17:22 40.786886 -111.976758 343 4227ft 2kts
03-Nov-19 17:23 40.786715 -111.976721 356 4227ft 0kts
03-Nov-19 17:24 40.786715 -111.976721 356 4227ft 0kts
03-Nov-19 17:25 40.786715 -111.976721 356 4227ft 0kts
03-Nov-19 17:26 40.786715 -111.976721 356 4227ft 0kts
03-Nov-19 17:27 40.786715 -111.976721 356 4227ft 0kts
03-Nov-19 17:28 40.786715 -111.976721 356 4227ft 0kts
03-Nov-19 17:29 40.786715 -111.976721 356 4227ft 0kts
03-Nov-19 17:30 40.786715 -111.976721 356 4227ft 0kts
03-Nov-19 17:31 40.786715 -111.976721 356 4227ft 0kts
03-Nov-19 17:32 40.786715 -111.976721 356 4227ft 0kts
03-Nov-19 17:33 40.786715 -111.976721 356 4227ft 0kts
03-Nov-19 17:36 40.787356 -111.977796 0 4227ft 0kts
03-Nov-19 17:37 40.787356 -111.977796 269 4227ft 0kts
03-Nov-19 17:38 40.787356 -111.977796 269 4227ft 0kts
03-Nov-19 17:40 40.787356 -111.977796 269 4227ft 0kts
03-Nov-19 17:41 40.787356 -111.977796 269 4227ft 0kts
03-Nov-19 17:42 40.787356 -111.977796 269 4227ft 0kts
03-Nov-19 17:43 40.787356 -111.977796 269 4227ft 0kts
03-Nov-19 17:44 40.787356 -111.977796 269 4227ft 0kts
03-Nov-19 17:45 40.787356 -111.977796 269 4227ft 0kts
03-Nov-19 17:46 40.787491 -111.977782 26 4227ft 2kts
03-Nov-19 17:47 40.790638 -111.977175 354 4226ft 16kts
03-Nov-19 17:48 40.795924 -111.977799 355 4226ft 18kts
03-Nov-19 17:49 40.800943 -111.978382 355 4229ft 16kts
03-Nov-19 17:50 40.805810 -111.978968 354 4230ft 18kts
03-Nov-19 17:51 40.807404 -111.977283 104 4230ft 11kts
03-Nov-19 17:52 40.783123 -111.974239 177 4480ft 170kts
03-Nov-19 17:53 40.731562 -111.968868 174 6352ft 195kts
03-Nov-19 17:54 40.674395 -111.959767 175 8111ft 219kts
03-Nov-19 17:55 40.609752 -111.944613 169 9839ft 262kts
03-Nov-19 17:56 40.533598 -111.921892 169 12143ft 281kts
03-Nov-19 17:57 40.450761 -111.912273 184 13987ft 307kts
03-Nov-19 17:58 40.359696 -111.916219 188 15473ft 339kts
03-Nov-19 17:58 40.281432 -111.927154 191 17017ft 350kts
03-Nov-19 18:00 40.164580 -111.947203 187 18555ft 380kts
03-Nov-19 18:01 40.056713 -111.964174 191 19818ft 396kts
03-Nov-19 18:01 39.964267 -111.979560 189 20992ft 404kts
03-Nov-19 18:02 39.850657 -111.994008 189 22199ft 414kts
03-Nov-19 18:04 39.714103 -112.010990 189 23415ft 425kts
03-Nov-19 18:04 39.614637 -112.023376 189 24194ft 432kts
03-Nov-19 18:05 39.493307 -112.038588 189 25052ft 440kts
03-Nov-19 18:06 39.370138 -112.054087 189 25844ft 446kts
03-Nov-19 18:07 39.245075 -112.069899 189 26571ft 452kts
03-Nov-19 18:08 39.120706 -112.093469 210 27181ft 447kts
03-Nov-19 18:09 39.022375 -112.188265 226 27795ft 441kts
03-Nov-19 18:10 38.933842 -112.299157 230 28166ft 446kts
03-Nov-19 18:11 38.850465 -112.418069 231 28154ft 447kts
03-Nov-19 18:12 38.767619 -112.538657 231 28149ft 448kts
03-Nov-19 18:13 38.684995 -112.658958 230 28146ft 449kts
03-Nov-19 18:14 38.598346 -112.775124 222 28145ft 452kts
03-Nov-19 18:15 38.495804 -112.869825 212 28146ft 455kts
03-Nov-19 18:16 38.386171 -112.952553 212 28146ft 457kts
03-Nov-19 18:17 38.276122 -113.036406 212 28146ft 458kts
03-Nov-19 18:18 38.172614 -113.130800 219 28145ft 459kts
03-Nov-19 18:19 38.070924 -113.230156 218 28139ft 460kts
03-Nov-19 18:20 37.968190 -113.328243 217 28137ft 461kts
03-Nov-19 18:21 37.861563 -113.421693 213 28136ft 463kts
03-Nov-19 18:22 37.752119 -113.509152 213 28137ft 463kts
03-Nov-19 18:23 37.642261 -113.596644 213 28124ft 464kts
03-Nov-19 18:24 37.542729 -113.674005 212 28087ft 465kts
03-Nov-19 18:25 37.431124 -113.759593 212 28071ft 465kts
03-Nov-19 18:26 37.321343 -113.847525 214 28073ft 465kts
03-Nov-19 18:27 37.212915 -113.936854 214 28073ft 465kts
03-Nov-19 18:28 37.103930 -114.026546 214 28074ft 465kts
03-Nov-19 18:29 36.994473 -114.115948 214 28074ft 463kts
03-Nov-19 18:30 36.887417 -114.204898 214 28072ft 460kts
03-Nov-19 18:31 36.780637 -114.294142 214 28063ft 458kts
03-Nov-19 18:32 36.674401 -114.382781 214 28045ft 456kts
03-Nov-19 18:33 36.568740 -114.470771 214 28027ft 455kts
03-Nov-19 18:34 36.457097 -114.544769 206 28028ft 454kts
03-Nov-19 18:35 36.343044 -114.613380 206 28034ft 453kts
03-Nov-19 18:36 36.228548 -114.679274 205 28038ft 452kts
03-Nov-19 18:37 36.113792 -114.744985 205 28045ft 452kts
03-Nov-19 18:38 35.999295 -114.810401 205 28045ft 451kts
03-Nov-19 18:39 35.884607 -114.875882 205 28045ft 451kts
03-Nov-19 18:40 35.770419 -114.940983 205 28045ft 451kts
03-Nov-19 18:41 35.675028 -115.035989 235 28055ft 447kts
03-Nov-19 18:42 35.594403 -115.151621 205 28063ft 449kts
03-Nov-19 18:43 35.472571 -115.187840 191 28071ft 452kts
03-Nov-19 18:44 35.348910 -115.218539 191 28073ft 454kts
03-Nov-19 18:45 35.224222 -115.249847 192 28010ft 457kts
03-Nov-19 18:46 35.099519 -115.285951 195 28000ft 458kts
03-Nov-19 18:47 34.978997 -115.338724 203 27988ft 459kts
03-Nov-19 18:48 34.862774 -115.395003 203 28007ft 457kts
03-Nov-19 18:49 34.749998 -115.464791 207 27995ft 449kts
03-Nov-19 18:50 34.640512 -115.537371 209 28061ft 441kts
03-Nov-19 18:51 34.532111 -115.605233 200 28093ft 435kts
03-Nov-19 18:52 34.418904 -115.641259 193 28090ft 431kts
03-Nov-19 18:53 34.312214 -115.673767 195 28090ft 429kts
03-Nov-19 18:54 34.198289 -115.716426 200 28090ft 427kts
03-Nov-19 18:55 34.098040 -115.788058 236 28086ft 432kts
03-Nov-19 18:56 34.079927 -115.932804 263 28093ft 442kts
03-Nov-19 18:57 34.070424 -116.080913 259 28082ft 440kts
03-Nov-19 18:58 34.051970 -116.226304 257 28045ft 439kts
03-Nov-19 18:59 34.032097 -116.365717 255 26359ft 414kts
03-Nov-19 19:00 34.010415 -116.501995 255 24059ft 403kts
03-Nov-19 19:01 33.988931 -116.635209 255 23763ft 403kts
03-Nov-19 19:02 33.966728 -116.768955 255 21169ft 403kts
03-Nov-19 19:03 33.944612 -116.899508 261 19119ft 392kts
03-Nov-19 19:04 33.931523 -117.026063 269 17418ft 372kts
03-Nov-19 19:05 33.936674 -117.149348 274 17006ft 382kts
03-Nov-19 19:06 33.944761 -117.282560 275 17001ft 415kts
03-Nov-19 19:07 33.952032 -117.425100 290 16980ft 414kts
03-Nov-19 19:08 33.991771 -117.536004 296 16178ft 320kts
03-Nov-19 19:09 34.026856 -117.630995 290 13324ft 312kts
03-Nov-19 19:10 34.021269 -117.731569 271 10679ft 301kts
03-Nov-19 19:11 34.000605 -117.819571 247 9428ft 253kts
03-Nov-19 19:12 33.984122 -117.896883 258 8118ft 238kts
03-Nov-19 19:13 33.975278 -117.974633 264 6989ft 234kts
03-Nov-19 19:14 33.970363 -118.052485 264 5806ft 233kts
03-Nov-19 19:15 33.964570 -118.128849 262 4535ft 222kts
03-Nov-19 19:16 33.956584 -118.198826 259 3279ft 173kts
03-Nov-19 19:17 33.952142 -118.250007 261 2214ft 139kts
03-Nov-19 19:18 33.945700 -118.295225 264 1705ft 134kts
03-Nov-19 19:19 33.941773 -118.338756 264 784ft 128kts
03-Nov-19 19:20 33.937444 -118.381459 263 163ft 126kts
03-Nov-19 19:21 33.935764 -118.401977 283 121ft 19kts
03-Nov-19 19:22 33.935955 -118.406889 262 127ft 13kts
03-Nov-19 19:23 33.938369 -118.409139 19 127ft 16kts
03-Nov-19 19:24 33.939487 -118.401182 82 120ft 25kts
03-Nov-19 19:25 33.940694 -118.398229 1 116ft 10kts
03-Nov-19 19:26 33.941297 -118.397629 83 115ft 0kts
03-Nov-19 19:27 33.941297 -118.397629 83 115ft 0kts

Navigation Log

Ident Type
Flight plan parsing failed, navigation log unavailable